createdAt,value
2019-01-30T00:02:29.648Z,37.70
2019-01-30T00:04:59.740Z,37.93
2019-01-30T00:07:29.869Z,36.98
2019-01-30T00:09:59.972Z,43.50
2019-01-30T00:12:30.143Z,46.77
2019-01-30T00:15:00.323Z,45.83
2019-01-30T00:17:30.428Z,42.85
2019-01-30T00:20:00.649Z,44.88
2019-01-30T00:22:30.914Z,41.98
2019-01-30T00:25:01.011Z,41.83
2019-01-30T00:27:31.119Z,46.05
2019-01-30T00:30:04.233Z,44.93
2019-01-30T00:32:33.040Z,40.17
2019-01-30T00:35:03.131Z,45.92
2019-01-30T00:37:33.239Z,42.88
2019-01-30T00:40:08.218Z,50.88
2019-01-30T00:42:38.416Z,43.65
2019-01-30T00:45:13.057Z,44.00
2019-01-30T00:47:43.166Z,44.38
2019-01-30T00:50:16.369Z,39.42
2019-01-30T00:52:46.476Z,43.65
2019-01-30T00:55:16.569Z,44.98
2019-01-30T00:57:46.677Z,45.33
2019-01-30T01:00:21.432Z,48.92
2019-01-30T01:02:51.575Z,43.73
2019-01-30T01:05:21.666Z,41.00
2019-01-30T01:07:51.775Z,56.20
2019-01-30T01:10:22.332Z,47.50
2019-01-30T01:12:52.547Z,48.75
2019-01-30T01:15:22.614Z,42.38
2019-01-30T01:17:52.718Z,48.38
2019-01-30T01:20:23.372Z,49.18
2019-01-30T01:22:53.553Z,55.83
2019-01-30T01:25:23.651Z,56.00
2019-01-30T01:28:13.221Z,56.40
2019-01-30T01:30:43.313Z,53.10
2019-01-30T01:33:13.464Z,50.80
2019-01-30T01:35:43.552Z,52.85
2019-01-30T01:38:13.658Z,48.55
2019-01-30T01:40:43.749Z,54.93
2019-01-30T01:43:33.290Z,48.55
2019-01-30T01:46:03.381Z,48.60
2019-01-30T01:48:33.489Z,53.73
2019-01-30T01:51:03.576Z,50.98
2019-01-30T01:53:34.835Z,52.45
2019-01-30T01:56:04.988Z,48.42
2019-01-30T01:58:35.103Z,46.83
2019-01-30T02:01:05.192Z,58.33
2019-01-30T02:03:35.366Z,50.38
2019-01-30T02:06:07.072Z,49.20
2019-01-30T02:08:37.181Z,46.23
2019-01-30T02:11:07.269Z,47.85
2019-01-30T02:13:37.376Z,44.73
2019-01-30T02:16:07.473Z,55.55
2019-01-30T02:18:38.543Z,49.20
2019-01-30T02:21:08.631Z,49.53
2019-01-30T02:23:38.735Z,40.55
2019-01-30T02:26:08.825Z,43.42
2019-01-30T02:28:38.932Z,48.10
2019-01-30T02:31:09.020Z,46.63
2019-01-30T02:33:39.129Z,48.13
2019-01-30T02:36:09.218Z,48.35
2019-01-30T02:38:39.328Z,51.85
2019-01-30T02:41:09.423Z,46.63
2019-01-30T02:43:39.529Z,54.53
2019-01-30T02:46:09.729Z,44.63
2019-01-30T02:48:39.836Z,43.38
2019-01-30T02:51:09.926Z,41.92
2019-01-30T02:53:40.043Z,48.30
2019-01-30T02:56:10.132Z,47.58
2019-01-30T02:58:40.241Z,45.08
2019-01-30T03:01:10.331Z,52.78
2019-01-30T03:03:40.442Z,44.53
2019-01-30T03:06:10.534Z,38.98
2019-01-30T03:08:40.652Z,42.98
2019-01-30T03:11:10.741Z,48.30
2019-01-30T03:13:40.860Z,51.92
2019-01-30T03:16:11.053Z,42.80
2019-01-30T03:18:41.169Z,42.27
2019-01-30T03:21:11.297Z,52.20
2019-01-30T03:23:41.408Z,49.05
2019-01-30T03:26:11.524Z,46.55
2019-01-30T03:28:41.621Z,51.37
2019-01-30T03:31:17.645Z,44.45
2019-01-30T03:33:43.521Z,52.40
2019-01-30T03:36:13.656Z,49.03
2019-01-30T03:38:43.749Z,48.48
2019-01-30T03:41:26.191Z,45.98
2019-01-30T03:43:56.275Z,47.78
2019-01-30T03:46:26.385Z,45.98
2019-01-30T03:48:56.477Z,48.02
2019-01-30T03:51:26.584Z,49.10
2019-01-30T03:53:56.679Z,52.20
2019-01-30T03:56:26.791Z,43.55
2019-01-30T03:58:56.882Z,45.30
2019-01-30T04:01:27.139Z,51.73
2019-01-30T04:03:57.231Z,44.53
2019-01-30T04:06:27.346Z,46.50
2019-01-30T04:08:57.439Z,41.45
2019-01-30T04:11:27.544Z,45.85
2019-01-30T04:13:57.632Z,45.05
2019-01-30T04:16:27.735Z,44.25
2019-01-30T04:18:57.844Z,38.70
2019-01-30T04:21:27.942Z,41.60
2019-01-30T04:23:58.053Z,44.93
2019-01-30T04:26:28.141Z,44.70
2019-01-30T04:28:58.248Z,44.45
2019-01-30T04:31:37.950Z,40.75
2019-01-30T04:34:00.325Z,40.10
2019-01-30T04:36:30.413Z,41.75
2019-01-30T04:39:00.529Z,40.75
2019-01-30T04:41:30.617Z,36.60
2019-01-30T04:44:00.726Z,43.73
2019-01-30T04:46:30.815Z,39.30
2019-01-30T04:49:00.922Z,38.15
2019-01-30T04:51:31.108Z,43.05
2019-01-30T04:54:01.196Z,37.83
2019-01-30T04:56:31.281Z,36.93
2019-01-30T04:59:02.356Z,31.95
2019-01-30T05:01:32.451Z,37.48
2019-01-30T05:04:02.557Z,33.18
2019-01-30T05:06:32.647Z,35.10
2019-01-30T05:09:02.760Z,38.67
2019-01-30T05:11:53.353Z,33.92
2019-01-30T05:14:23.462Z,38.83
2019-01-30T05:16:53.729Z,36.40
2019-01-30T05:19:23.840Z,39.20
2019-01-30T05:21:53.930Z,34.55
2019-01-30T05:24:24.045Z,36.50
2019-01-30T05:26:54.133Z,37.73
2019-01-30T05:29:24.245Z,35.38
2019-01-30T05:32:00.872Z,39.95
2019-01-30T05:34:27.109Z,39.67
2019-01-30T05:36:57.194Z,33.63
2019-01-30T05:39:27.300Z,37.03
2019-01-30T05:41:57.457Z,33.58
2019-01-30T05:44:27.581Z,37.50
2019-01-30T05:47:17.096Z,35.33
2019-01-30T05:49:49.903Z,39.10
2019-01-30T05:52:19.984Z,36.77
2019-01-30T05:54:50.199Z,36.88
2019-01-30T05:57:23.096Z,33.30
2019-01-30T05:59:53.275Z,37.35
2019-01-30T06:02:23.444Z,30.88
2019-01-30T06:04:53.680Z,31.02
2019-01-30T06:07:23.749Z,35.95
2019-01-30T06:09:53.898Z,35.05
2019-01-30T06:12:24.002Z,36.05
2019-01-30T06:14:54.102Z,33.40
2019-01-30T06:17:24.184Z,37.28
2019-01-30T06:19:54.422Z,40.88
2019-01-30T06:22:24.508Z,30.50
2019-01-30T06:24:54.787Z,31.77
2019-01-30T06:27:24.920Z,34.20
2019-01-30T06:29:55.137Z,32.23
2019-01-30T06:32:25.205Z,34.40
2019-01-30T06:34:56.718Z,29.25
2019-01-30T06:37:26.949Z,35.55
2019-01-30T06:39:57.020Z,30.10
2019-01-30T06:42:27.125Z,29.00
2019-01-30T06:44:57.213Z,31.48
2019-01-30T06:47:27.320Z,34.25
2019-01-30T06:49:57.411Z,37.03
2019-01-30T06:52:27.520Z,39.83
2019-01-30T06:54:57.653Z,37.42
2019-01-30T06:57:27.753Z,30.85
2019-01-30T06:59:57.971Z,29.35
2019-01-30T07:02:32.394Z,30.65
2019-01-30T07:04:59.840Z,38.23
2019-01-30T07:07:30.459Z,30.43
2019-01-30T07:10:00.576Z,31.70
2019-01-30T07:12:30.631Z,28.38
2019-01-30T07:15:00.759Z,33.28
2019-01-30T07:17:31.029Z,27.48
2019-01-30T07:20:01.107Z,29.60
2019-01-30T07:22:31.217Z,28.77
2019-01-30T07:25:01.306Z,34.33
2019-01-30T07:27:31.422Z,29.07
2019-01-30T07:30:01.516Z,33.80
2019-01-30T07:32:31.628Z,33.38
2019-01-30T07:35:01.712Z,31.35
2019-01-30T07:37:31.823Z,31.15
2019-01-30T07:40:01.949Z,33.02
2019-01-30T07:42:32.059Z,30.35
2019-01-30T07:45:02.146Z,23.85
2019-01-30T07:47:32.248Z,24.82
2019-01-30T07:50:02.336Z,33.23
2019-01-30T07:52:32.848Z,31.15
2019-01-30T07:55:03.001Z,26.17
2019-01-30T07:57:33.110Z,28.57
2019-01-30T08:00:03.664Z,28.80
2019-01-30T08:02:33.773Z,27.85
2019-01-30T08:05:05.578Z,27.73
2019-01-30T08:07:35.675Z,25.85
2019-01-30T08:10:13.329Z,24.63
2019-01-30T08:12:43.448Z,25.23
2019-01-30T08:15:21.682Z,29.98
2019-01-30T08:17:51.779Z,27.87
2019-01-30T08:20:22.863Z,23.22
2019-01-30T08:22:53.054Z,24.50
2019-01-30T08:25:23.868Z,27.20
2019-01-30T08:27:54.346Z,27.60
2019-01-30T08:30:30.068Z,27.22
2019-01-30T08:33:04.627Z,20.40
2019-01-30T08:35:32.462Z,21.52
2019-01-30T08:38:02.695Z,24.77
2019-01-30T08:40:32.841Z,22.22
2019-01-30T08:43:06.019Z,21.10
2019-01-30T08:45:36.094Z,18.23
2019-01-30T08:48:06.269Z,21.33
2019-01-30T08:50:36.343Z,25.65
2019-01-30T08:53:09.665Z,21.82
2019-01-30T08:55:39.824Z,21.27
2019-01-30T08:58:13.010Z,27.87
2019-01-30T09:00:43.090Z,24.18
2019-01-30T09:03:15.043Z,19.55
2019-01-30T09:05:44.962Z,20.88
2019-01-30T09:08:15.063Z,28.02
2019-01-30T09:10:45.138Z,21.35
2019-01-30T09:13:15.285Z,24.32
2019-01-30T09:15:45.357Z,24.60
2019-01-30T09:18:15.560Z,23.57
2019-01-30T09:20:45.620Z,22.55
2019-01-30T09:23:15.713Z,23.05
2019-01-30T09:25:45.790Z,21.33
2019-01-30T09:28:15.895Z,22.30
2019-01-30T09:30:46.006Z,19.07
2019-01-30T09:33:25.618Z,21.77
2019-01-30T09:35:47.888Z,21.70
2019-01-30T09:38:17.993Z,23.75
2019-01-30T09:40:48.084Z,21.17
2019-01-30T09:43:18.233Z,21.30
2019-01-30T09:45:48.295Z,19.32
2019-01-30T09:48:18.434Z,20.45
2019-01-30T09:50:48.543Z,19.37
2019-01-30T09:53:20.366Z,19.52
2019-01-30T09:56:03.079Z,21.42
2019-01-30T09:58:33.184Z,18.32
2019-01-30T10:01:03.277Z,18.55
2019-01-30T10:03:36.488Z,18.05
2019-01-30T10:06:05.193Z,18.40
2019-01-30T10:08:35.342Z,18.15
2019-01-30T10:11:05.426Z,17.85
2019-01-30T10:13:37.385Z,19.98
2019-01-30T10:16:07.320Z,21.60
2019-01-30T10:18:37.854Z,19.07
2019-01-30T10:21:08.018Z,18.95
2019-01-30T10:23:38.134Z,17.95
2019-01-30T10:26:08.262Z,17.92
2019-01-30T10:28:38.326Z,16.37
2019-01-30T10:31:08.406Z,16.57
2019-01-30T10:33:46.352Z,16.82
2019-01-30T10:36:10.330Z,18.98
2019-01-30T10:38:40.479Z,19.27
2019-01-30T10:41:10.517Z,17.32
2019-01-30T10:43:40.626Z,17.23
2019-01-30T10:46:10.715Z,17.40
2019-01-30T10:48:40.821Z,17.95
2019-01-30T10:51:11.002Z,18.90
2019-01-30T10:53:41.111Z,20.23
2019-01-30T10:56:11.195Z,16.52
2019-01-30T10:58:41.301Z,21.02
2019-01-30T11:01:11.394Z,16.70
2019-01-30T11:03:41.500Z,17.77
2019-01-30T11:06:11.590Z,18.62
2019-01-30T11:08:41.705Z,17.85
2019-01-30T11:11:11.787Z,21.10
2019-01-30T11:13:41.897Z,19.32
2019-01-30T11:16:11.983Z,19.12
2019-01-30T11:18:42.585Z,17.48
2019-01-30T11:21:12.668Z,16.77
2019-01-30T11:23:42.771Z,15.50
2019-01-30T11:26:12.855Z,21.02
2019-01-30T11:28:42.967Z,15.43
2019-01-30T11:31:13.052Z,15.23
2019-01-30T11:33:43.151Z,17.73
2019-01-30T11:36:13.225Z,16.87
2019-01-30T11:38:43.327Z,22.80
2019-01-30T11:41:13.409Z,16.40
2019-01-30T11:43:43.496Z,18.20
2019-01-30T11:46:13.593Z,18.42
2019-01-30T11:48:43.670Z,15.78
2019-01-30T11:51:15.421Z,20.92
2019-01-30T11:53:45.492Z,15.48
2019-01-30T11:56:15.594Z,19.25
2019-01-30T11:58:45.666Z,16.62
2019-01-30T12:01:15.911Z,17.10
2019-01-30T12:03:45.995Z,17.85
2019-01-30T12:06:16.063Z,17.92
2019-01-30T12:08:46.153Z,16.82
2019-01-30T12:11:16.227Z,17.25
2019-01-30T12:13:46.316Z,15.30
2019-01-30T12:16:16.761Z,19.25
2019-01-30T12:18:46.855Z,17.87
2019-01-30T12:21:16.929Z,19.70
2019-01-30T12:23:47.098Z,19.15
2019-01-30T12:26:17.174Z,23.95
2019-01-30T12:28:47.271Z,18.65
2019-01-30T12:31:17.711Z,20.92
2019-01-30T12:33:48.783Z,23.30
2019-01-30T12:36:18.858Z,23.05
2019-01-30T12:38:48.961Z,20.55
2019-01-30T12:41:19.043Z,20.25
2019-01-30T12:43:49.137Z,17.57
2019-01-30T12:46:19.215Z,21.27
2019-01-30T12:48:49.330Z,22.98
2019-01-30T12:51:19.405Z,21.75
2019-01-30T12:53:49.510Z,23.50
2019-01-30T12:56:19.585Z,26.15
2019-01-30T12:58:49.686Z,28.12
2019-01-30T13:01:19.847Z,24.82
2019-01-30T13:03:49.953Z,23.85
2019-01-30T13:06:20.031Z,25.77
2019-01-30T13:08:50.164Z,21.75
2019-01-30T13:11:20.255Z,21.82
2019-01-30T13:13:50.359Z,27.13
2019-01-30T13:16:20.437Z,24.30
2019-01-30T13:18:50.554Z,28.95
2019-01-30T13:21:20.634Z,24.72
2019-01-30T13:23:50.740Z,28.12
2019-01-30T13:26:20.812Z,27.00
2019-01-30T13:28:50.914Z,31.25
2019-01-30T13:31:20.994Z,24.70
2019-01-30T13:33:51.111Z,27.87
2019-01-30T13:36:21.188Z,30.45
2019-01-30T13:38:51.295Z,32.50
2019-01-30T13:41:21.370Z,33.60
2019-01-30T13:43:51.476Z,30.08
2019-01-30T13:46:21.555Z,33.35
2019-01-30T13:48:51.693Z,29.60
2019-01-30T13:51:21.738Z,36.42
2019-01-30T13:53:51.846Z,33.38
2019-01-30T13:56:21.922Z,34.40
2019-01-30T13:58:52.033Z,33.18
2019-01-30T14:01:22.104Z,33.63
2019-01-30T14:03:52.236Z,37.75
2019-01-30T14:06:22.416Z,33.83
2019-01-30T14:08:52.580Z,34.43
2019-01-30T14:11:22.654Z,37.00
2019-01-30T14:13:53.732Z,41.77
2019-01-30T14:16:23.811Z,37.98
2019-01-30T14:18:53.969Z,39.08
2019-01-30T14:21:24.034Z,36.60
2019-01-30T14:23:54.107Z,37.17
2019-01-30T14:26:24.224Z,35.15
2019-01-30T14:28:54.306Z,38.45
2019-01-30T14:31:24.378Z,37.88
2019-01-30T14:33:54.584Z,41.20
2019-01-30T14:36:24.681Z,39.33
2019-01-30T14:38:54.789Z,42.43
2019-01-30T14:41:24.914Z,42.10
2019-01-30T14:43:55.051Z,36.90
2019-01-30T14:46:25.238Z,42.85
2019-01-30T14:48:55.341Z,38.63
2019-01-30T14:51:25.424Z,39.88
2019-01-30T14:53:55.568Z,38.80
2019-01-30T14:56:25.657Z,39.67
2019-01-30T14:58:55.820Z,44.15
2019-01-30T15:01:26.010Z,37.17
2019-01-30T15:03:56.150Z,41.83
2019-01-30T15:06:26.201Z,42.60
2019-01-30T15:08:56.359Z,38.33
2019-01-30T15:11:26.435Z,35.90
2019-01-30T15:13:56.585Z,36.30
2019-01-30T15:16:26.688Z,34.83
2019-01-30T15:18:56.925Z,40.43
2019-01-30T15:21:27.082Z,41.45
2019-01-30T15:23:57.223Z,38.10
2019-01-30T15:26:27.367Z,37.28
2019-01-30T15:28:57.503Z,34.83
2019-01-30T15:31:27.715Z,32.25
2019-01-30T15:33:57.820Z,32.25
2019-01-30T15:36:27.969Z,33.48
2019-01-30T15:38:58.087Z,40.65
2019-01-30T15:41:28.746Z,31.10
2019-01-30T15:43:58.868Z,33.13
2019-01-30T15:46:28.949Z,36.48
2019-01-30T15:48:59.050Z,33.42
2019-01-30T15:51:29.169Z,29.25
2019-01-30T15:53:59.274Z,35.92
2019-01-30T15:56:29.351Z,34.40
2019-01-30T15:58:59.460Z,33.50
2019-01-30T16:01:29.539Z,26.68
2019-01-30T16:03:59.652Z,29.05
2019-01-30T16:06:29.731Z,28.02
2019-01-30T16:08:59.835Z,28.05
2019-01-30T16:11:29.992Z,29.05
2019-01-30T16:14:00.173Z,28.90
2019-01-30T16:16:31.730Z,29.77
2019-01-30T16:19:01.843Z,32.08
2019-01-30T16:21:31.959Z,28.90
2019-01-30T16:24:02.173Z,30.25
2019-01-30T16:26:32.373Z,28.92
2019-01-30T16:29:02.486Z,24.92
2019-01-30T16:31:33.755Z,27.17
2019-01-30T16:34:04.189Z,28.75
2019-01-30T16:36:35.888Z,27.98
2019-01-30T16:39:08.531Z,26.62
2019-01-30T16:41:38.606Z,27.45
2019-01-30T16:44:08.706Z,26.62
2019-01-30T16:46:38.810Z,23.57
2019-01-30T16:49:08.880Z,30.02
2019-01-30T16:51:38.981Z,25.52
2019-01-30T16:54:09.057Z,26.30
2019-01-30T16:56:39.198Z,25.48
2019-01-30T16:59:09.277Z,22.48
2019-01-30T17:01:39.396Z,27.15
2019-01-30T17:04:09.578Z,28.92
2019-01-30T17:06:39.844Z,22.10
2019-01-30T17:09:09.924Z,25.62
2019-01-30T17:11:40.035Z,31.12
2019-01-30T17:14:10.383Z,26.12
2019-01-30T17:16:40.564Z,26.97
2019-01-30T17:19:10.632Z,27.85
2019-01-30T17:21:40.811Z,24.60
2019-01-30T17:24:10.889Z,24.35
2019-01-30T17:26:40.990Z,25.55
2019-01-30T17:29:11.065Z,23.32
2019-01-30T17:31:41.169Z,26.57
2019-01-30T17:34:11.293Z,25.15
2019-01-30T17:36:41.396Z,25.23
2019-01-30T17:39:11.478Z,26.93
2019-01-30T17:41:41.587Z,26.35
2019-01-30T17:44:12.886Z,24.82
2019-01-30T17:46:43.152Z,26.20
2019-01-30T17:49:13.233Z,26.90
2019-01-30T17:51:43.329Z,27.32
2019-01-30T17:54:13.410Z,24.65
2019-01-30T17:56:44.501Z,29.35
2019-01-30T17:59:14.583Z,23.35
2019-01-30T18:01:44.685Z,24.95
2019-01-30T18:04:14.867Z,29.07
2019-01-30T18:06:44.966Z,26.33
2019-01-30T18:09:15.047Z,26.90
2019-01-30T18:11:45.154Z,27.00
2019-01-30T18:14:15.225Z,32.33
2019-01-30T18:16:45.418Z,29.05
2019-01-30T18:19:15.493Z,28.35
2019-01-30T18:21:45.593Z,30.43
2019-01-30T18:24:15.671Z,31.48
2019-01-30T18:26:45.780Z,28.75
2019-01-30T18:29:15.864Z,27.85
2019-01-30T18:31:45.964Z,30.55
2019-01-30T18:34:16.043Z,34.95
2019-01-30T18:36:46.146Z,29.95
2019-01-30T18:39:16.231Z,31.35
2019-01-30T18:41:46.334Z,30.88
2019-01-30T18:44:16.416Z,35.85
2019-01-30T18:46:59.319Z,32.85
2019-01-30T18:49:29.392Z,33.42
2019-01-30T18:51:59.546Z,34.98
2019-01-30T18:54:32.555Z,32.63
2019-01-30T18:57:03.259Z,34.00
2019-01-30T18:59:33.418Z,34.13
2019-01-30T19:02:03.525Z,35.92
2019-01-30T19:04:33.654Z,36.17
2019-01-30T19:07:03.766Z,38.58
2019-01-30T19:09:33.842Z,38.70
2019-01-30T19:12:03.946Z,46.73
2019-01-30T19:14:34.027Z,35.92
2019-01-30T19:17:04.136Z,41.10
2019-01-30T19:19:35.376Z,36.53
2019-01-30T19:22:06.028Z,38.33
2019-01-30T19:24:36.106Z,42.85
2019-01-30T19:27:06.276Z,39.65
2019-01-30T19:29:36.474Z,43.52
2019-01-30T19:32:06.583Z,43.30
2019-01-30T19:34:36.661Z,39.88
2019-01-30T19:37:07.743Z,45.50
2019-01-30T19:39:37.815Z,37.13
2019-01-30T19:42:07.957Z,37.85
2019-01-30T19:44:38.122Z,45.60
2019-01-30T19:47:08.352Z,42.58
2019-01-30T19:49:38.380Z,40.98
2019-01-30T19:52:08.491Z,45.38
2019-01-30T19:54:38.575Z,45.25
2019-01-30T19:57:08.681Z,46.55
2019-01-30T19:59:39.835Z,51.00
2019-01-30T20:02:11.012Z,50.70
2019-01-30T20:04:41.121Z,50.95
2019-01-30T20:07:14.914Z,49.65
2019-01-30T20:09:44.983Z,45.80
2019-01-30T20:12:14.902Z,52.17
2019-01-30T20:14:44.979Z,52.67
2019-01-30T20:17:15.088Z,50.80
2019-01-30T20:19:45.167Z,52.08
2019-01-30T20:22:15.276Z,52.95
2019-01-30T20:24:45.353Z,54.15
2019-01-30T20:27:15.471Z,47.25
2019-01-30T20:29:45.552Z,56.58
2019-01-30T20:32:15.664Z,55.60
2019-01-30T20:34:45.738Z,53.30
2019-01-30T20:37:25.892Z,55.25
2019-01-30T20:39:47.624Z,52.20
2019-01-30T20:42:17.732Z,57.60
2019-01-30T20:44:47.825Z,52.78
2019-01-30T20:47:17.999Z,55.40
2019-01-30T20:49:50.629Z,53.38
2019-01-30T20:52:19.888Z,60.40
2019-01-30T20:54:59.703Z,61.73
2019-01-30T20:57:21.793Z,54.75
2019-01-30T20:59:51.884Z,57.50
2019-01-30T21:02:33.932Z,58.48
2019-01-30T21:05:05.751Z,58.73
2019-01-30T21:07:37.324Z,60.12
2019-01-30T21:10:20.679Z,60.10
2019-01-30T21:12:50.785Z,60.63
2019-01-30T21:15:21.337Z,59.83
2019-01-30T21:17:51.441Z,58.92
2019-01-30T21:20:21.523Z,59.40
2019-01-30T21:22:51.697Z,61.65
2019-01-30T21:25:22.923Z,61.40
2019-01-30T21:27:54.864Z,60.15
2019-01-30T21:30:34.388Z,57.25
2019-01-30T21:33:04.561Z,58.23
2019-01-30T21:35:34.646Z,65.85
2019-01-30T21:38:05.025Z,65.10
2019-01-30T21:40:35.101Z,62.88
2019-01-30T21:43:05.226Z,62.50
2019-01-30T21:45:35.294Z,65.08
2019-01-30T21:48:05.741Z,62.13
2019-01-30T21:50:35.824Z,63.87
2019-01-30T21:53:05.945Z,61.95
2019-01-30T21:55:36.032Z,70.25
2019-01-30T21:58:06.309Z,66.47
2019-01-30T22:00:36.473Z,62.08
2019-01-30T22:03:06.583Z,70.70
2019-01-30T22:05:36.662Z,68.75
2019-01-30T22:08:06.780Z,65.80
2019-01-30T22:10:36.882Z,64.37
2019-01-30T22:13:06.965Z,62.95
2019-01-30T22:15:37.047Z,67.10
2019-01-30T22:18:07.434Z,70.57
2019-01-30T22:20:37.503Z,71.53
2019-01-30T22:23:07.602Z,72.55
2019-01-30T22:25:40.086Z,66.17
2019-01-30T22:28:10.187Z,67.42
2019-01-30T22:30:40.345Z,71.75
2019-01-30T22:33:10.522Z,66.97
2019-01-30T22:35:40.692Z,71.12
2019-01-30T22:38:12.517Z,70.28
2019-01-30T22:40:42.620Z,73.92
2019-01-30T22:43:12.770Z,69.17
2019-01-30T22:45:43.901Z,71.45
2019-01-30T22:48:14.005Z,65.87
2019-01-30T22:50:44.085Z,66.12
2019-01-30T22:53:15.185Z,73.67
2019-01-30T22:55:45.267Z,73.10
2019-01-30T22:58:15.462Z,69.17
2019-01-30T23:01:10.841Z,71.85
2019-01-30T23:03:48.419Z,75.60
2019-01-30T23:06:35.434Z,69.45
2019-01-30T23:09:24.670Z,75.78
2019-01-30T23:12:17.585Z,66.33
2019-01-30T23:15:15.450Z,69.20
2019-01-30T23:18:21.684Z,74.03
2019-01-30T23:20:56.759Z,72.95
2019-01-30T23:23:34.469Z,71.33
2019-01-30T23:26:12.094Z,74.80
2019-01-30T23:29:15.898Z,68.05
2019-01-30T23:31:53.326Z,69.35
2019-01-30T23:34:34.337Z,66.57
2019-01-30T23:37:37.839Z,70.42
2019-01-30T23:40:33.351Z,67.65
2019-01-30T23:43:40.759Z,70.40
2019-01-30T23:46:30.353Z,75.75
2019-01-30T23:49:45.627Z,73.90
2019-01-30T23:52:49.122Z,70.92
2019-01-30T23:55:40.384Z,63.80
